Strausstown, Pennsylvania
Current Conditions -  °F | °C
As of 6:54 AM on Thursday 23 Oct 2014 (Local Time) from KRDG Reporting Station
Light Rain Light Rain  
Wind Chill: 51°   Ceiling: 2800
Heat Index: 51°   Visibility: 10mi
Dew Point: 43°   Wind: 16mph
Humidity: 74%   Direction: 330°NNW
Pressure: 29.82"   Gusts: NA
Location:  40.49°N, 76.18°W
Report Text: KRDG 231054Z 33014KT 10SM -RA BKN028 OVC049 11/06 A2982 RMK AO2 RAB39 SLP104 P0000 T01060061
Loading
Personal Weather Stations






























Interactive Weather Map
Tropical Storm Tracking
New forecast layout! Learn more

10-Day Weather Forecast

Advertisements
Track Severe Weather on mobile